Laguna Beach, California
Current Conditions -  °F | °C
As of 11:53 AM on Monday 26 Jan 2015 (Local Time) from KSNA Reporting Station
Broken Clouds Broken Clouds  
Wind Chill: 80°   Ceiling: 11000
Heat Index: 80°   Visibility: 10mi
Dew Point: 34°   Wind: 14mph
Humidity: 19%   Direction: 200°SSW
Pressure: 29.99"   Gusts: 20mph
Location:  33.55°N, 117.78°W
Report Text: KSNA 261953Z 20012G17KT 10SM FEW080 BKN110 BKN330 27/01 A2999 RMK AO2 SLP154 T02670011
Loading
Personal Weather Stations






























Interactive Weather Map New forecast layout! Learn more

10-Day Weather Forecast

Advertisements
Track Severe Weather on mobile